x

Cape Edgecumbe - 25nm Ssw Of Cape Edgecumbe, Ak (46084) Wave Buoy

8:50am - Thu 30th Oct 2014 All times are AKDT. -8 hours from GMT.

  • Sig Wave height 10.5ft
  • Peak Period 12s
  • Average Period 8s
  • Wind
    11mph, 18mph gusts
  • Sea Temp 54°f
  • Air Temp 46°f
  • Sea Pressure 998.3mb
  • Cape Edgecumbe - 25nm Ssw Of Cape Edgecumbe, Ak
  • Cape Edgecumbe - 25nm Ssw Of Cape Edgecumbe, Ak

More Historic Weather Station data

Upgrade to MSW Pro to gain access to the past 30 days of data for over 8000 Wavebouys and Weather Stations around the globe.

Join Pro

Comparision Forecast

View Surf forecast
   
Thu 10/30 8:50am 10.5ft 12s 8s 11 18 mph 998.3mb 54f 46f
7:50am 10ft 11s 7s 18 22 mph 998.5mb 54f 46f
6:50am 10ft 10s 7s 16 22 mph 998.5mb 54f 46f
5:50am 10ft 11s 7s 13 20 mph 998.2mb 54f 46f
4:50am 11ft 11s 7s 13 18 mph 998.3mb 54f 45f
3:50am 10.5ft 12s 7s 13 20 mph 998.4mb 54f 46f
2:50am 11.5ft 13s 7s 18 20 mph 998.7mb 54f 46f
1:50am 13ft 8s 7s 18 27 mph 998.5mb 54f 47f
12:50am 11ft 8s 6s 27 34 mph 998.7mb 54f 49f
Wed 10/29 11:50pm 12.5ft 8s 6s 29 34 mph 999.2mb 54f 49f
10:50pm 11ft 8s 6s 36 43 mph 999.7mb 54f 50f
9:50pm 10ft 7s 6s 38 45 mph 999.8mb 54f 50f
8:50pm 7.5ft 7s 5s 34 40 mph 1000.9mb 54f 50f
7:50pm 7ft 7s 5s 25 27 mph 1002.2mb 54f 49f
6:50pm 7ft 5s 5s 31 36 mph 1002.8mb 54f 50f
5:50pm 5ft 10s 5s 27 34 mph 1004mb 54f 49f
4:50pm 5.5ft 10s 6s 4 9 mph 1005.8mb 54f 45f
3:50pm 6ft 10s 5s 9 11 mph 1006mb 54f 46f
2:50pm 6ft 9s 5s 4 11 mph 1006.9mb 54f 47f
1:50pm 6.5ft 11s 5s 18 22 mph 1006.4mb 54f 49f
12:50pm 6.5ft 11s 5s 18 29 mph 1006.4mb 54f 49f
11:50am 6.5ft 11s 5s 22 27 mph 1005.9mb 54f 51f
10:50am 6.5ft 5s  -  25 31 mph 1005.7mb 54f 51f
9:50am 5.5ft 11s 5s 25 29 mph 1005.1mb 54f 51f
8:50am 6ft 12s 5s 25 27 mph 1004.5mb 54f 51f
7:50am 6ft 13s 5s 25 29 mph 1004mb 54f 50f
6:50am 5.5ft 11s 5s 20 25 mph 1003.5mb 54f 51f
5:50am 5ft 12s 6s 18 22 mph 1003.3mb 54f 51f
4:50am 5ft 11s 6s 20 22 mph 1002.9mb 54f 51f
3:50am 6ft 12s 7s 16 20 mph 1002.4mb 54f 50f
2:50am 5.5ft 12s 7s 16 20 mph 1002.3mb 54f 50f
1:50am 6ft 11s 8s 16 20 mph 1001.9mb 54f 50f
12:50am 5.5ft 11s 7s 16 20 mph 1001.2mb 54f 50f
Tue 10/28 11:50pm 6ft 11s 8s 16 20 mph 1000.6mb 54f 50f
10:50pm 6.5ft 13s 9s 4 9 mph 1000.3mb 54f 47f
9:50pm 6ft 12s 9s 9 11 mph 999.4mb 54f 47f
8:50pm 5.5ft 13s 8s 9 11 mph 998.9mb 54f 47f
7:50pm 5.5ft 13s 8s 11 13 mph 998.2mb 54f 47f
6:50pm 5.5ft 14s 8s 7 9 mph 997.3mb 54f 47f
5:50pm 5ft 14s 8s 9 11 mph 996.6mb 54f 47f
4:50pm 5.5ft 14s 8s 4 9 mph 996mb 54f 47f
3:50pm 5.5ft 14s 8s 2 7 mph 995.6mb 54f 46f
2:50pm 6ft 15s 8s 7 9 mph 995.2mb 54f 47f
1:50pm 6ft 11s 7s 4 7 mph 995.2mb 54f 47f
12:50pm 5.5ft 12s 7s 7 9 mph 995mb 54f 47f
11:50am 6ft 11s 7s 9 11 mph 994.9mb 54f 46f
10:50am 6.5ft 11s 7s 13 16 mph 994.7mb 54f 46f
9:50am 7ft 11s 7s 13 18 mph 994.7mb 54f 47f
8:50am 7ft 12s 7s 16 20 mph 994.7mb 54f 47f
7:50am 6ft 12s 7s 16 20 mph 994.7mb 54f 47f
6:50am 6ft 10s 6s 13 18 mph 995mb 54f 48f
5:50am 5ft 6s 5s 16 20 mph 995.2mb 54f 49f
4:50am 5ft 6s 5s 20 22 mph 995.5mb 54f 50f
3:50am 5ft 6s 5s 22 25 mph 995.8mb 54f 49f
2:50am 5ft 6s 5s 20 25 mph 996.8mb 54f 50f
1:50am 4.5ft 5s 4s 22 27 mph 997.5mb 54f 50f
12:50am 4.5ft 5s 4s 22 27 mph 998.6mb 54f 50f
Mon 10/27 11:50pm 4.5ft 5s 4s 20 25 mph 999.5mb 55f 50f
10:50pm 4ft 5s 4s 20 25 mph 1000.4mb 55f 50f
9:50pm 4ft 4s 4s 20 22 mph 1001.2mb 55f 49f
8:50pm 3.5ft 4s 4s 18 20 mph 1002.3mb 55f 49f
7:50pm 3.5ft 4s 4s 13 18 mph 1003mb 55f 50f
6:50pm 3.5ft 4s 4s 11 16 mph 1003.8mb 55f 50f
5:50pm 3ft 4s 4s 11 16 mph 1004.6mb 55f 50f
4:50pm 3ft 4s 4s 11 16 mph 1005.3mb 55f 50f
3:50pm 3ft 11s 4s 13 16 mph 1006.3mb 55f 50f
2:50pm 3ft 7s 4s 13 16 mph 1007.2mb 54f 49f
1:50pm 3ft 7s 4s 16 18 mph 1007.8mb 54f 50f
12:50pm 3ft 7s 4s 13 16 mph 1008.7mb 54f 49f
11:50am 3ft 8s 4s 13 18 mph 1009.2mb 54f 49f
10:50am 3.5ft 7s 4s 13 16 mph 1009.6mb 54f 48f
9:50am 3.5ft 7s 5s 4 7 mph 1010mb 54f 46f
8:50am 3ft 7s 5s 9 11 mph 1010.3mb 54f 45f
7:50am 3.5ft 7s 5s 13 16 mph 1009.9mb 55f 46f
6:50am 3.5ft 7s 5s 4 9 mph 1010mb 55f 47f
5:50am 3.5ft 7s 5s 9 16 mph 1010.4mb 55f 46f
4:50am 3.5ft 7s 5s 9 13 mph 1010.7mb 55f 47f
3:50am 3.5ft 7s 5s 11 13 mph 1010.8mb 55f 47f
2:50am 3.5ft 6s 5s 9 11 mph 1011.3mb 55f 49f
1:50am 3.5ft 7s 6s 13 16 mph 1011.6mb 55f 49f
12:50am 3.5ft 8s 6s 9 11 mph 1011.7mb 55f 49f
Sun 10/26 11:50pm 3.5ft 8s 6s 9 13 mph 1012.1mb 55f 49f
10:50pm 3.5ft 8s 5s 11 20 mph 1012.2mb 55f 49f
9:50pm 3.5ft 8s 5s 9 11 mph 1012.1mb 55f 49f
8:50pm 3.5ft 8s 6s 11 22 mph 1012.3mb 55f 50f
7:50pm 3ft 8s 5s 9 11 mph 1012.5mb 55f 49f
6:50pm 3.5ft 8s 5s 7 9 mph 1012.4mb 54f 49f